createdAt,value
2022-08-09T00:01:37.281Z,11.25
2022-08-09T00:04:25.044Z,6.97
2022-08-09T00:07:02.689Z,7.53
2022-08-09T00:09:29.871Z,8.07
2022-08-09T00:12:03.716Z,8.73
2022-08-09T00:14:38.278Z,11.20
2022-08-09T00:17:06.833Z,7.90
2022-08-09T00:19:34.095Z,6.90
2022-08-09T00:22:03.414Z,7.07
2022-08-09T00:24:32.027Z,9.98
2022-08-09T00:27:00.519Z,8.15
2022-08-09T00:29:39.653Z,8.05
2022-08-09T00:32:26.713Z,6.80
2022-08-09T00:34:54.359Z,8.37
2022-08-09T00:37:21.540Z,6.85
2022-08-09T00:40:09.380Z,7.78
2022-08-09T00:44:16.376Z,8.60
2022-08-09T00:45:23.062Z,7.63
2022-08-09T00:47:50.477Z,8.40
2022-08-09T00:50:17.668Z,7.65
2022-08-09T00:52:44.907Z,9.20
2022-08-09T00:55:32.949Z,6.75
2022-08-09T00:57:59.282Z,10.68
2022-08-09T01:00:27.146Z,10.20
2022-08-09T01:03:16.751Z,7.43
2022-08-09T01:06:18.450Z,8.93
2022-08-09T01:09:03.678Z,7.80
2022-08-09T01:11:53.352Z,8.43
2022-08-09T01:14:46.552Z,9.77
2022-08-09T01:17:42.034Z,10.27
2022-08-09T01:20:30.857Z,6.75
2022-08-09T01:24:01.781Z,10.70
2022-08-09T01:26:20.733Z,7.60
2022-08-09T01:28:54.109Z,6.57
2022-08-09T01:32:32.042Z,8.70
2022-08-09T01:34:16.924Z,11.70
2022-08-09T01:36:45.116Z,9.60
2022-08-09T01:39:15.367Z,14.65
2022-08-09T01:41:53.784Z,8.63
2022-08-09T01:44:29.836Z,9.93
2022-08-09T01:46:59.208Z,9.25
2022-08-09T01:49:38.761Z,10.30
2022-08-09T01:52:10.309Z,9.90
2022-08-09T01:54:40.729Z,8.37
2022-08-09T01:57:21.691Z,10.38
2022-08-09T01:59:53.416Z,8.68
2022-08-09T02:02:31.501Z,8.95
2022-08-09T02:05:05.850Z,10.00
2022-08-09T02:08:40.609Z,8.70
2022-08-09T02:10:42.786Z,10.50
2022-08-09T02:13:17.470Z,11.63
2022-08-09T02:15:51.396Z,9.80
2022-08-09T02:18:22.973Z,9.57
2022-08-09T02:20:55.109Z,10.23
2022-08-09T02:23:45.515Z,9.27
2022-08-09T02:26:24.867Z,10.65
2022-08-09T02:28:57.417Z,12.25
2022-08-09T02:31:35.523Z,8.75
2022-08-09T02:34:40.571Z,11.93
2022-08-09T02:37:14.151Z,9.00
2022-08-09T02:40:10.554Z,13.00
2022-08-09T02:42:41.908Z,10.13
2022-08-09T02:45:15.102Z,13.77
2022-08-09T02:47:57.771Z,11.53
2022-08-09T02:50:36.420Z,10.98
2022-08-09T02:53:26.460Z,12.90
2022-08-09T02:55:58.495Z,10.23
2022-08-09T02:58:35.388Z,11.52
2022-08-09T03:01:08.277Z,11.33
2022-08-09T03:04:12.870Z,9.45
2022-08-09T03:06:27.968Z,9.90
2022-08-09T03:08:57.202Z,10.65
2022-08-09T03:12:06.555Z,12.05
2022-08-09T03:14:14.070Z,9.77
2022-08-09T03:16:45.007Z,10.70
2022-08-09T03:19:14.413Z,10.57
2022-08-09T03:22:03.357Z,9.82
2022-08-09T03:24:31.725Z,10.48
2022-08-09T03:27:10.649Z,10.60
2022-08-09T03:29:57.120Z,11.43
2022-08-09T03:32:26.232Z,10.25
2022-08-09T03:34:54.126Z,11.10
2022-08-09T03:37:56.620Z,11.57
2022-08-09T03:40:13.103Z,13.40
2022-08-09T03:42:43.187Z,11.93
2022-08-09T03:45:11.166Z,14.02
2022-08-09T03:47:40.000Z,16.15
2022-08-09T03:50:10.866Z,10.52
2022-08-09T03:52:58.642Z,9.53
2022-08-09T03:55:27.138Z,12.23
2022-08-09T03:58:09.719Z,9.70
2022-08-09T04:00:44.949Z,10.20
2022-08-09T04:03:19.645Z,10.23
2022-08-09T04:05:59.858Z,13.07
2022-08-09T04:08:31.714Z,9.05
2022-08-09T04:11:01.774Z,9.95
2022-08-09T04:13:44.971Z,11.90
2022-08-09T04:16:19.609Z,10.00
2022-08-09T04:18:49.187Z,10.30
2022-08-09T04:21:18.456Z,11.73
2022-08-09T04:23:53.794Z,12.02
2022-08-09T04:26:25.133Z,14.10
2022-08-09T04:29:09.649Z,11.10
2022-08-09T04:31:47.250Z,10.80
2022-08-09T04:34:19.168Z,13.20
2022-08-09T04:36:59.174Z,13.32
2022-08-09T04:39:30.950Z,10.07
2022-08-09T04:41:59.780Z,13.18
2022-08-09T04:44:29.738Z,11.37
2022-08-09T04:47:05.663Z,11.38
2022-08-09T04:49:52.962Z,13.40
2022-08-09T04:52:26.109Z,10.45
2022-08-09T04:55:00.963Z,10.63
2022-08-09T04:57:54.103Z,10.30
2022-08-09T05:00:16.890Z,10.10
2022-08-09T05:02:44.321Z,10.02
2022-08-09T05:05:32.109Z,11.50
2022-08-09T05:08:05.992Z,12.95
2022-08-09T05:10:34.540Z,13.13
2022-08-09T05:13:04.008Z,12.93
2022-08-09T05:15:39.260Z,15.60
2022-08-09T05:18:39.622Z,11.68
2022-08-09T05:21:01.735Z,12.18
2022-08-09T05:23:54.880Z,12.60
2022-08-09T05:26:15.997Z,11.07
2022-08-09T05:28:53.268Z,11.25
2022-08-09T05:31:39.834Z,10.13
2022-08-09T05:34:07.673Z,9.68
2022-08-09T05:36:47.019Z,14.07
2022-08-09T05:39:28.553Z,9.25
2022-08-09T05:42:01.774Z,10.75
2022-08-09T05:44:32.920Z,9.95
2022-08-09T05:47:04.027Z,12.88
2022-08-09T05:50:23.278Z,11.73
2022-08-09T05:52:20.898Z,9.95
2022-08-09T05:54:49.141Z,13.05
2022-08-09T05:57:17.580Z,12.30
2022-08-09T05:59:46.185Z,10.38
2022-08-09T06:02:16.806Z,12.43
2022-08-09T06:04:46.220Z,9.80
2022-08-09T06:07:21.613Z,12.25
2022-08-09T06:10:01.980Z,11.50
2022-08-09T06:12:30.450Z,9.52
2022-08-09T06:15:01.225Z,11.33
2022-08-09T06:17:39.941Z,10.85
2022-08-09T06:20:08.393Z,8.43
2022-08-09T06:22:36.786Z,8.68
2022-08-09T06:25:04.573Z,6.90
2022-08-09T06:27:41.381Z,11.20
2022-08-09T06:30:14.304Z,11.95
2022-08-09T06:33:00.709Z,19.48
2022-08-09T06:35:56.093Z,9.82
2022-08-09T06:38:17.572Z,7.80
2022-08-09T06:40:46.159Z,10.73
2022-08-09T06:43:14.143Z,8.65
2022-08-09T06:46:06.593Z,8.65
2022-08-09T06:48:31.107Z,8.25
2022-08-09T06:51:00.012Z,8.07
2022-08-09T06:53:27.350Z,8.43
2022-08-09T06:56:02.938Z,9.13
2022-08-09T07:00:46.607Z,9.73
2022-08-09T07:01:17.295Z,8.35
2022-08-09T07:03:52.454Z,10.02
2022-08-09T07:06:21.514Z,11.07
2022-08-09T07:08:52.797Z,9.75
2022-08-09T07:11:25.232Z,7.00
2022-08-09T07:14:05.278Z,7.03
2022-08-09T07:16:43.269Z,7.72
2022-08-09T07:19:22.847Z,6.40
2022-08-09T07:21:57.185Z,5.90
2022-08-09T07:24:32.664Z,9.70
2022-08-09T07:27:21.092Z,8.00
2022-08-09T07:29:57.135Z,8.65
2022-08-09T07:32:33.582Z,6.70
2022-08-09T07:35:08.022Z,8.02
2022-08-09T07:37:44.030Z,6.38
2022-08-09T07:40:18.320Z,7.20
2022-08-09T07:42:47.953Z,5.43
2022-08-09T07:45:23.676Z,6.63
2022-08-09T07:48:04.987Z,7.95
2022-08-09T07:50:34.917Z,5.45
2022-08-09T07:53:04.625Z,10.13
2022-08-09T07:55:41.707Z,7.43
2022-08-09T07:58:21.534Z,7.20
2022-08-09T08:00:58.949Z,6.10
2022-08-09T08:03:36.907Z,8.80
2022-08-09T08:06:04.860Z,6.13
2022-08-09T08:09:02.219Z,6.80
2022-08-09T08:12:10.142Z,5.33
2022-08-09T08:14:07.000Z,6.10
2022-08-09T08:16:36.311Z,6.10
2022-08-09T08:19:06.498Z,5.20
2022-08-09T08:21:33.888Z,6.07
2022-08-09T08:24:12.187Z,5.70
2022-08-09T08:26:56.079Z,4.03
2022-08-09T08:29:28.049Z,6.97
2022-08-09T08:32:03.100Z,6.45
2022-08-09T08:34:31.387Z,4.63
2022-08-09T08:37:01.391Z,7.60
2022-08-09T08:39:28.480Z,5.40
2022-08-09T08:41:58.697Z,3.35
2022-08-09T08:44:29.679Z,3.22
2022-08-09T08:47:05.088Z,6.35
2022-08-09T08:49:48.455Z,3.60
2022-08-09T08:52:52.792Z,4.78
2022-08-09T08:55:09.719Z,3.42
2022-08-09T08:57:37.651Z,3.88
2022-08-09T09:00:12.751Z,4.18
2022-08-09T09:02:50.094Z,4.13
2022-08-09T09:05:33.025Z,5.93
2022-08-09T09:08:02.808Z,3.78
2022-08-09T09:10:30.482Z,3.97
2022-08-09T09:12:58.489Z,4.10
2022-08-09T09:15:28.530Z,5.43
2022-08-09T09:17:55.684Z,2.80
2022-08-09T09:20:22.899Z,4.47
2022-08-09T09:22:55.747Z,2.67
2022-08-09T09:26:03.712Z,3.75
2022-08-09T09:29:03.122Z,2.80
2022-08-09T09:32:06.815Z,4.10
2022-08-09T09:34:15.299Z,3.88
2022-08-09T09:36:53.080Z,4.88
2022-08-09T09:39:54.744Z,3.00
2022-08-09T09:42:29.493Z,3.83
2022-08-09T09:45:03.736Z,3.15
2022-08-09T09:47:32.658Z,3.05
2022-08-09T09:50:14.952Z,3.47
2022-08-09T09:52:54.666Z,2.67
2022-08-09T09:55:28.120Z,6.20
2022-08-09T09:58:16.353Z,3.90
2022-08-09T10:00:54.707Z,3.15
2022-08-09T10:03:57.505Z,4.57
2022-08-09T10:06:43.489Z,3.65
2022-08-09T10:09:22.752Z,3.90
2022-08-09T10:12:27.714Z,8.02
2022-08-09T10:14:49.462Z,4.30
2022-08-09T10:17:50.853Z,6.18
2022-08-09T10:20:35.851Z,3.97
2022-08-09T10:23:21.870Z,2.47
2022-08-09T10:26:08.054Z,5.13
2022-08-09T10:28:38.644Z,7.03
2022-08-09T10:34:10.101Z,3.72
2022-08-09T10:36:45.670Z,3.83
2022-08-09T10:39:15.860Z,3.25
2022-08-09T10:41:46.214Z,4.13
2022-08-09T10:44:17.660Z,3.20
2022-08-09T10:47:00.831Z,4.05
2022-08-09T10:49:51.626Z,5.27
2022-08-09T10:52:36.358Z,5.63
2022-08-09T10:55:26.688Z,5.00
2022-08-09T10:58:00.118Z,10.02
2022-08-09T11:00:50.959Z,7.50
2022-08-09T11:03:50.263Z,3.27
2022-08-09T11:06:20.838Z,3.33
2022-08-09T11:08:53.430Z,5.03
2022-08-09T11:11:23.258Z,2.97
2022-08-09T11:14:31.703Z,5.28
2022-08-09T11:16:58.930Z,4.10
2022-08-09T11:20:10.806Z,3.08
2022-08-09T11:22:56.690Z,3.80
2022-08-09T11:25:44.995Z,4.45
2022-08-09T11:28:54.174Z,4.60
2022-08-09T11:31:49.618Z,3.50
2022-08-09T11:34:46.027Z,4.80
2022-08-09T11:37:26.349Z,3.42
2022-08-09T11:40:04.212Z,3.78
2022-08-09T11:42:47.114Z,3.10
2022-08-09T11:45:42.452Z,3.80
2022-08-09T11:48:19.264Z,3.78
2022-08-09T11:53:00.770Z,4.38
2022-08-09T11:53:58.623Z,2.58
2022-08-09T11:56:41.631Z,5.40
2022-08-09T11:59:11.671Z,2.60
2022-08-09T12:02:34.389Z,2.22
2022-08-09T12:04:37.531Z,3.40
2022-08-09T12:07:08.146Z,2.22
2022-08-09T12:09:36.226Z,2.25
2022-08-09T12:12:12.152Z,2.60
2022-08-09T12:14:59.065Z,2.58
2022-08-09T12:17:33.845Z,3.42
2022-08-09T12:20:21.432Z,5.97
2022-08-09T12:22:58.282Z,5.63
2022-08-09T12:25:36.582Z,3.07
2022-08-09T12:29:15.615Z,2.15
2022-08-09T12:31:30.847Z,4.93
2022-08-09T12:34:14.195Z,2.92
2022-08-09T12:36:59.130Z,2.42
2022-08-09T12:39:42.656Z,3.37
2022-08-09T12:42:16.595Z,3.60
2022-08-09T12:44:51.916Z,5.22
2022-08-09T12:47:23.018Z,2.95
2022-08-09T12:50:08.990Z,2.47
2022-08-09T12:53:09.108Z,5.60
2022-08-09T12:56:14.498Z,3.40
2022-08-09T12:58:24.219Z,3.58
2022-08-09T13:00:55.549Z,2.10
2022-08-09T13:03:53.642Z,4.25
2022-08-09T13:06:34.626Z,4.33
2022-08-09T13:09:09.968Z,2.95
2022-08-09T13:11:42.436Z,3.33
2022-08-09T13:14:40.893Z,3.92
2022-08-09T13:17:44.068Z,2.70
2022-08-09T13:20:14.415Z,4.30
2022-08-09T13:23:06.125Z,5.15
2022-08-09T13:25:54.566Z,8.05
2022-08-09T13:28:33.848Z,3.30
2022-08-09T13:32:17.132Z,4.05
2022-08-09T13:33:58.987Z,2.13
2022-08-09T13:36:40.927Z,2.45
2022-08-09T13:41:17.620Z,2.97
2022-08-09T13:42:13.432Z,5.47
2022-08-09T13:44:42.900Z,6.90
2022-08-09T13:47:26.850Z,4.30
2022-08-09T13:50:12.407Z,3.13
2022-08-09T13:52:41.706Z,3.97
2022-08-09T13:55:13.765Z,4.50
2022-08-09T13:57:55.954Z,3.75
2022-08-09T14:00:28.323Z,3.60
2022-08-09T14:03:04.013Z,2.40
2022-08-09T14:06:01.301Z,4.18
2022-08-09T14:08:32.510Z,3.08
2022-08-09T14:11:00.545Z,3.97
2022-08-09T14:14:22.412Z,5.87
2022-08-09T14:16:19.404Z,4.15
2022-08-09T14:18:49.380Z,3.08
2022-08-09T14:21:23.400Z,3.80
2022-08-09T14:23:54.883Z,2.92
2022-08-09T14:26:32.825Z,4.90
2022-08-09T14:30:18.745Z,2.65
2022-08-09T14:31:56.052Z,3.15
2022-08-09T14:34:27.238Z,2.33
2022-08-09T14:36:59.477Z,3.03
2022-08-09T14:39:46.212Z,4.43
2022-08-09T14:42:13.378Z,3.45
2022-08-09T14:45:00.313Z,3.92
2022-08-09T14:47:45.481Z,3.90
2022-08-09T14:50:16.208Z,6.30
2022-08-09T14:52:50.692Z,4.60
2022-08-09T14:55:20.018Z,3.35
2022-08-09T14:57:47.949Z,3.47
2022-08-09T15:00:16.241Z,3.70
2022-08-09T15:02:43.019Z,2.92
2022-08-09T15:05:16.900Z,3.57
2022-08-09T15:07:45.584Z,4.35
2022-08-09T15:10:21.790Z,3.75
2022-08-09T15:12:53.034Z,4.90
2022-08-09T15:15:20.431Z,5.50
2022-08-09T15:17:52.270Z,4.13
2022-08-09T15:21:56.706Z,3.17
2022-08-09T15:24:00.751Z,4.15
2022-08-09T15:25:58.443Z,4.00
2022-08-09T15:28:27.789Z,6.68
2022-08-09T15:31:08.636Z,4.20
2022-08-09T15:34:17.464Z,5.28
2022-08-09T15:36:29.226Z,3.75
2022-08-09T15:39:00.678Z,2.58
2022-08-09T15:41:32.108Z,3.50
2022-08-09T15:44:03.655Z,4.50
2022-08-09T15:46:32.900Z,5.13
2022-08-09T15:49:22.232Z,6.45
2022-08-09T15:52:03.376Z,3.80
2022-08-09T15:54:49.085Z,4.55
2022-08-09T15:57:34.421Z,3.83
2022-08-09T16:00:14.245Z,3.42
2022-08-09T16:02:53.630Z,3.78
2022-08-09T16:05:23.167Z,3.20
2022-08-09T16:07:50.989Z,3.78
2022-08-09T16:10:56.077Z,5.03
2022-08-09T16:13:20.964Z,4.18
2022-08-09T16:16:10.077Z,3.58
2022-08-09T16:18:44.793Z,4.60
2022-08-09T16:21:17.817Z,3.67
2022-08-09T16:24:02.254Z,4.10
2022-08-09T16:26:33.499Z,3.85
2022-08-09T16:29:10.554Z,4.82
2022-08-09T16:32:18.961Z,4.32
2022-08-09T16:34:56.151Z,2.60
2022-08-09T16:37:18.732Z,3.53
2022-08-09T16:39:54.615Z,5.63
2022-08-09T16:42:32.324Z,4.75
2022-08-09T16:44:59.174Z,5.10
2022-08-09T16:48:42.028Z,4.63
2022-08-09T16:50:31.374Z,5.20
2022-08-09T16:53:00.383Z,9.68
2022-08-09T16:55:27.479Z,3.85
2022-08-09T16:58:13.784Z,4.50
2022-08-09T17:00:43.613Z,4.43
2022-08-09T17:03:21.731Z,5.53
2022-08-09T17:06:07.950Z,3.25
2022-08-09T17:09:01.800Z,5.93
2022-08-09T17:11:37.684Z,3.05
2022-08-09T17:14:26.116Z,9.93
2022-08-09T17:17:02.361Z,11.77
2022-08-09T17:20:05.031Z,3.28
2022-08-09T17:22:23.892Z,6.53
2022-08-09T17:24:54.834Z,4.60
2022-08-09T17:27:22.520Z,6.13
2022-08-09T17:29:50.621Z,6.47
2022-08-09T17:32:20.264Z,4.50
2022-08-09T17:35:04.116Z,3.42
2022-08-09T17:38:12.992Z,5.43
2022-08-09T17:40:27.108Z,2.75
2022-08-09T17:42:59.741Z,6.83
2022-08-09T17:46:06.073Z,4.90
2022-08-09T17:48:28.478Z,3.20
2022-08-09T17:51:08.918Z,3.70
2022-08-09T17:53:43.470Z,3.50
2022-08-09T17:56:18.335Z,7.60
2022-08-09T17:58:45.285Z,4.55
2022-08-09T18:01:22.621Z,4.38
2022-08-09T18:03:52.643Z,3.10
2022-08-09T18:06:31.301Z,3.83
2022-08-09T18:09:03.349Z,3.83
2022-08-09T18:12:05.925Z,3.28
2022-08-09T18:14:23.226Z,4.97
2022-08-09T18:16:51.112Z,8.02
2022-08-09T18:20:55.891Z,3.88
2022-08-09T18:22:13.185Z,8.37
2022-08-09T18:24:44.271Z,5.45
2022-08-09T18:27:14.196Z,3.40
2022-08-09T18:30:38.913Z,4.78
2022-08-09T18:32:47.905Z,4.50
2022-08-09T18:35:53.223Z,11.07
2022-08-09T18:38:09.283Z,4.90
2022-08-09T18:40:38.972Z,7.15
2022-08-09T18:43:05.772Z,5.15
2022-08-09T18:46:47.214Z,2.50
2022-08-09T18:48:19.421Z,3.63
2022-08-09T18:50:47.287Z,3.08
2022-08-09T18:53:16.641Z,3.47
2022-08-09T18:55:56.073Z,5.05
2022-08-09T18:58:32.337Z,7.07
2022-08-09T19:01:00.484Z,3.40
2022-08-09T19:03:28.709Z,4.10
2022-08-09T19:06:03.321Z,3.50
2022-08-09T19:08:31.982Z,4.10
2022-08-09T19:10:58.840Z,3.90
2022-08-09T19:13:38.690Z,5.80
2022-08-09T19:16:12.878Z,2.70
2022-08-09T19:18:45.409Z,6.43
2022-08-09T19:21:12.779Z,9.50
2022-08-09T19:24:36.356Z,4.70
2022-08-09T19:26:31.860Z,4.37
2022-08-09T19:29:02.580Z,3.55
2022-08-09T19:31:43.855Z,5.93
2022-08-09T19:34:22.136Z,3.72
2022-08-09T19:36:54.913Z,5.07
2022-08-09T19:39:28.900Z,4.00
2022-08-09T19:42:15.231Z,3.92
2022-08-09T19:44:49.365Z,3.88
2022-08-09T19:47:22.984Z,5.20
2022-08-09T19:50:06.717Z,6.13
2022-08-09T19:52:36.423Z,4.00
2022-08-09T19:55:04.597Z,6.88
2022-08-09T19:57:31.374Z,4.55
2022-08-09T20:00:07.555Z,8.20
2022-08-09T20:04:24.113Z,9.15
2022-08-09T20:05:25.251Z,7.63
2022-08-09T20:07:58.763Z,5.00
2022-08-09T20:10:34.561Z,7.05
2022-08-09T20:13:02.902Z,5.60
2022-08-09T20:16:33.520Z,4.35
2022-08-09T20:18:20.243Z,4.67
2022-08-09T20:20:50.399Z,4.13
2022-08-09T20:23:19.497Z,4.43
2022-08-09T20:25:52.463Z,8.55
2022-08-09T20:28:34.486Z,4.53
2022-08-09T20:31:11.465Z,5.27
2022-08-09T20:33:44.043Z,4.65
2022-08-09T20:36:12.398Z,4.70
2022-08-09T20:41:35.098Z,8.20
2022-08-09T20:44:06.817Z,6.30
2022-08-09T20:46:43.219Z,4.88
2022-08-09T20:49:12.664Z,6.70
2022-08-09T20:51:41.347Z,4.47
2022-08-09T20:54:12.510Z,3.90
2022-08-09T20:56:46.822Z,4.17
2022-08-09T20:59:17.294Z,6.88
2022-08-09T21:01:50.594Z,6.60
2022-08-09T21:05:53.118Z,5.03
2022-08-09T21:07:11.853Z,5.35
2022-08-09T21:09:45.489Z,7.17
2022-08-09T21:15:12.985Z,4.97
2022-08-09T21:18:21.806Z,4.93
2022-08-09T21:20:31.603Z,7.70
2022-08-09T21:23:00.279Z,4.47
2022-08-09T21:25:59.073Z,2.67
2022-08-09T21:28:35.094Z,3.20
2022-08-09T21:31:16.621Z,3.63
2022-08-09T21:33:51.710Z,4.25
2022-08-09T21:36:28.152Z,4.53
2022-08-09T21:38:58.795Z,4.43
2022-08-09T21:42:05.478Z,3.92
2022-08-09T21:44:33.526Z,6.03
2022-08-09T21:47:07.665Z,6.93
2022-08-09T21:49:42.681Z,4.70
2022-08-09T21:52:17.972Z,4.30
2022-08-09T21:55:02.842Z,3.20
2022-08-09T21:57:38.665Z,3.83
2022-08-09T22:00:25.886Z,3.53
2022-08-09T22:02:59.028Z,3.47
2022-08-09T22:05:36.866Z,3.97
2022-08-09T22:08:06.547Z,5.93
2022-08-09T22:10:34.061Z,3.67
2022-08-09T22:13:07.694Z,3.42
2022-08-09T22:15:39.089Z,5.53
2022-08-09T22:18:08.338Z,3.30
2022-08-09T22:20:40.157Z,5.00
2022-08-09T22:23:10.569Z,4.40
2022-08-09T22:26:06.603Z,3.55
2022-08-09T22:28:33.008Z,3.70
2022-08-09T22:31:01.557Z,2.97
2022-08-09T22:33:37.498Z,6.72
2022-08-09T22:36:19.284Z,3.90
2022-08-09T22:38:47.179Z,5.68
2022-08-09T22:41:13.951Z,3.37
2022-08-09T22:44:02.363Z,3.85
2022-08-09T22:48:11.474Z,6.63
2022-08-09T22:49:15.185Z,3.47
2022-08-09T22:51:49.637Z,3.22
2022-08-09T22:54:27.206Z,3.20
2022-08-09T22:56:57.092Z,4.55
2022-08-09T22:59:58.346Z,3.15
2022-08-09T23:02:15.839Z,4.97
2022-08-09T23:04:53.360Z,2.80
2022-08-09T23:08:21.725Z,2.60
2022-08-09T23:10:27.243Z,3.17
2022-08-09T23:12:54.012Z,2.53
2022-08-09T23:15:20.761Z,3.20
2022-08-09T23:17:47.718Z,4.00
2022-08-09T23:20:14.481Z,3.30
2022-08-09T23:22:41.308Z,6.07
2022-08-09T23:25:08.640Z,3.13
2022-08-09T23:27:35.756Z,3.95
2022-08-09T23:30:22.263Z,3.97
2022-08-09T23:32:49.396Z,3.03
2022-08-09T23:35:16.567Z,5.85
2022-08-09T23:37:43.807Z,4.65
2022-08-09T23:40:11.120Z,5.25
2022-08-09T23:42:39.004Z,5.53
2022-08-09T23:45:08.960Z,3.47
2022-08-09T23:47:36.616Z,3.05
2022-08-09T23:50:04.587Z,3.75
2022-08-09T23:52:31.364Z,9.40
2022-08-09T23:54:59.949Z,3.33
2022-08-09T23:57:27.515Z,3.67
